sensor_id;sensor_type;location;lat;lon;timestamp;temperature;humidity
20650;DHT22;10484;48.736;9.332;2022-11-20T00:00:46;7.40;1.00
20650;DHT22;10484;48.736;9.332;2022-11-20T00:03:12;7.40;1.00
20650;DHT22;10484;48.736;9.332;2022-11-20T00:05:38;7.40;1.00
20650;DHT22;10484;48.736;9.332;2022-11-20T00:08:04;7.40;1.00
20650;DHT22;10484;48.736;9.332;2022-11-20T00:10:30;7.40;1.00
20650;DHT22;10484;48.736;9.332;2022-11-20T00:12:58;7.30;1.00
20650;DHT22;10484;48.736;9.332;2022-11-20T00:15:23;7.30;1.00
20650;DHT22;10484;48.736;9.332;2022-11-20T00:17:49;7.30;1.00
20650;DHT22;10484;48.736;9.332;2022-11-20T00:20:15;7.30;1.00
20650;DHT22;10484;48.736;9.332;2022-11-20T00:22:41;7.30;1.00
20650;DHT22;10484;48.736;9.332;2022-11-20T00:25:07;7.20;1.00
20650;DHT22;10484;48.736;9.332;2022-11-20T00:27:32;7.20;1.00
20650;DHT22;10484;48.736;9.332;2022-11-20T00:29:58;7.20;1.00
20650;DHT22;10484;48.736;9.332;2022-11-20T00:32:24;7.20;1.00
20650;DHT22;10484;48.736;9.332;2022-11-20T00:34:49;7.20;1.00
20650;DHT22;10484;48.736;9.332;2022-11-20T00:37:15;7.10;1.00
20650;DHT22;10484;48.736;9.332;2022-11-20T00:39:40;7.10;1.00
20650;DHT22;10484;48.736;9.332;2022-11-20T00:42:06;7.10;1.00
20650;DHT22;10484;48.736;9.332;2022-11-20T00:44:32;7.10;1.00
20650;DHT22;10484;48.736;9.332;2022-11-20T00:46:57;7.10;1.00
20650;DHT22;10484;48.736;9.332;2022-11-20T00:49:23;7.10;1.00
20650;DHT22;10484;48.736;9.332;2022-11-20T00:51:48;7.10;1.00
20650;DHT22;10484;48.736;9.332;2022-11-20T00:54:14;7.00;1.00
20650;DHT22;10484;48.736;9.332;2022-11-20T00:56:40;7.10;1.00
20650;DHT22;10484;48.736;9.332;2022-11-20T00:59:05;7.00;1.00
20650;DHT22;10484;48.736;9.332;2022-11-20T01:01:31;7.00;1.00
20650;DHT22;10484;48.736;9.332;2022-11-20T01:03:59;7.00;1.00
20650;DHT22;10484;48.736;9.332;2022-11-20T01:06:27;7.00;1.00
20650;DHT22;10484;48.736;9.332;2022-11-20T01:08:56;7.00;1.00
20650;DHT22;10484;48.736;9.332;2022-11-20T01:11:27;7.00;1.00
20650;DHT22;10484;48.736;9.332;2022-11-20T01:13:54;7.00;1.00
20650;DHT22;10484;48.736;9.332;2022-11-20T01:16:21;7.00;1.00
20650;DHT22;10484;48.736;9.332;2022-11-20T01:18:49;7.00;1.00
20650;DHT22;10484;48.736;9.332;2022-11-20T01:21:21;7.00;1.00
20650;DHT22;10484;48.736;9.332;2022-11-20T01:23:48;7.00;1.00
20650;DHT22;10484;48.736;9.332;2022-11-20T01:26:17;7.00;1.00
20650;DHT22;10484;48.736;9.332;2022-11-20T01:28:43;7.00;1.00
20650;DHT22;10484;48.736;9.332;2022-11-20T01:31:22;7.00;1.00
20650;DHT22;10484;48.736;9.332;2022-11-20T01:33:49;7.00;1.00
20650;DHT22;10484;48.736;9.332;2022-11-20T01:36:17;7.00;1.00
20650;DHT22;10484;48.736;9.332;2022-11-20T01:38:43;7.00;1.00
20650;DHT22;10484;48.736;9.332;2022-11-20T01:41:10;7.00;1.00
20650;DHT22;10484;48.736;9.332;2022-11-20T01:43:56;7.00;1.00
20650;DHT22;10484;48.736;9.332;2022-11-20T01:46:22;7.00;1.00
20650;DHT22;10484;48.736;9.332;2022-11-20T01:49:57;7.00;1.00
20650;DHT22;10484;48.736;9.332;2022-11-20T01:52:18;7.00;1.00
20650;DHT22;10484;48.736;9.332;2022-11-20T01:54:53;7.00;1.00
20650;DHT22;10484;48.736;9.332;2022-11-20T01:57:20;7.00;1.00
20650;DHT22;10484;48.736;9.332;2022-11-20T01:59:55;7.00;1.00
20650;DHT22;10484;48.736;9.332;2022-11-20T02:02:22;7.00;1.00
20650;DHT22;10484;48.736;9.332;2022-11-20T02:04:49;7.00;1.00
20650;DHT22;10484;48.736;9.332;2022-11-20T02:07:16;6.90;1.00
20650;DHT22;10484;48.736;9.332;2022-11-20T02:09:42;6.90;1.00
20650;DHT22;10484;48.736;9.332;2022-11-20T02:12:08;6.90;1.00
20650;DHT22;10484;48.736;9.332;2022-11-20T02:14:54;6.90;1.00
20650;DHT22;10484;48.736;9.332;2022-11-20T02:17:19;6.90;1.00
20650;DHT22;10484;48.736;9.332;2022-11-20T02:19:46;6.90;1.00
20650;DHT22;10484;48.736;9.332;2022-11-20T02:22:24;6.90;1.00
20650;DHT22;10484;48.736;9.332;2022-11-20T02:24:51;6.90;1.00
20650;DHT22;10484;48.736;9.332;2022-11-20T02:27:18;6.80;1.00
20650;DHT22;10484;48.736;9.332;2022-11-20T02:29:51;6.80;1.00
20650;DHT22;10484;48.736;9.332;2022-11-20T02:32:28;6.80;1.00
20650;DHT22;10484;48.736;9.332;2022-11-20T02:34:54;6.80;1.00
20650;DHT22;10484;48.736;9.332;2022-11-20T02:37:21;6.80;1.00
20650;DHT22;10484;48.736;9.332;2022-11-20T02:39:49;6.70;1.00
20650;DHT22;10484;48.736;9.332;2022-11-20T02:42:15;6.70;1.00
20650;DHT22;10484;48.736;9.332;2022-11-20T02:44:41;6.70;1.00
20650;DHT22;10484;48.736;9.332;2022-11-20T02:47:07;6.70;1.00
20650;DHT22;10484;48.736;9.332;2022-11-20T02:49:33;6.70;1.00
20650;DHT22;10484;48.736;9.332;2022-11-20T02:51:59;6.70;1.00
20650;DHT22;10484;48.736;9.332;2022-11-20T02:54:25;6.70;1.00
20650;DHT22;10484;48.736;9.332;2022-11-20T02:56:51;6.70;1.00
20650;DHT22;10484;48.736;9.332;2022-11-20T02:59:16;6.70;1.00
20650;DHT22;10484;48.736;9.332;2022-11-20T03:01:42;6.70;1.00
20650;DHT22;10484;48.736;9.332;2022-11-20T03:04:07;6.70;1.00
20650;DHT22;10484;48.736;9.332;2022-11-20T03:06:33;6.70;1.00
20650;DHT22;10484;48.736;9.332;2022-11-20T03:08:59;6.60;1.00
20650;DHT22;10484;48.736;9.332;2022-11-20T03:11:25;6.70;1.00
20650;DHT22;10484;48.736;9.332;2022-11-20T03:13:50;6.70;1.00
20650;DHT22;10484;48.736;9.332;2022-11-20T03:16:21;6.60;1.00
20650;DHT22;10484;48.736;9.332;2022-11-20T03:18:47;6.70;1.00
20650;DHT22;10484;48.736;9.332;2022-11-20T03:21:14;6.60;1.00
20650;DHT22;10484;48.736;9.332;2022-11-20T03:23:40;6.70;1.00
20650;DHT22;10484;48.736;9.332;2022-11-20T03:26:14;6.60;1.00
20650;DHT22;10484;48.736;9.332;2022-11-20T03:28:41;6.60;1.00
20650;DHT22;10484;48.736;9.332;2022-11-20T03:31:09;6.60;1.00
20650;DHT22;10484;48.736;9.332;2022-11-20T03:33:36;6.60;1.00
20650;DHT22;10484;48.736;9.332;2022-11-20T03:36:06;6.60;1.00
20650;DHT22;10484;48.736;9.332;2022-11-20T03:38:33;6.60;1.00
20650;DHT22;10484;48.736;9.332;2022-11-20T03:41:03;6.60;1.00
20650;DHT22;10484;48.736;9.332;2022-11-20T03:43:29;6.60;1.00
20650;DHT22;10484;48.736;9.332;2022-11-20T03:45:55;6.70;1.00
20650;DHT22;10484;48.736;9.332;2022-11-20T03:48:21;6.60;1.00
20650;DHT22;10484;48.736;9.332;2022-11-20T03:50:47;6.70;1.00
20650;DHT22;10484;48.736;9.332;2022-11-20T03:53:14;6.70;1.00
20650;DHT22;10484;48.736;9.332;2022-11-20T03:55:39;6.60;1.00
20650;DHT22;10484;48.736;9.332;2022-11-20T03:58:05;6.60;1.00
20650;DHT22;10484;48.736;9.332;2022-11-20T04:00:31;6.60;1.00
20650;DHT22;10484;48.736;9.332;2022-11-20T04:03:00;6.60;1.00
20650;DHT22;10484;48.736;9.332;2022-11-20T04:05:26;6.60;1.00
20650;DHT22;10484;48.736;9.332;2022-11-20T04:07:52;6.60;1.00
20650;DHT22;10484;48.736;9.332;2022-11-20T04:10:18;6.60;1.00
20650;DHT22;10484;48.736;9.332;2022-11-20T04:12:44;6.60;1.00
20650;DHT22;10484;48.736;9.332;2022-11-20T04:15:09;6.60;1.00
20650;DHT22;10484;48.736;9.332;2022-11-20T04:17:35;6.60;1.00
20650;DHT22;10484;48.736;9.332;2022-11-20T04:20:01;6.60;1.00
20650;DHT22;10484;48.736;9.332;2022-11-20T04:22:27;6.60;1.00
20650;DHT22;10484;48.736;9.332;2022-11-20T04:24:52;6.60;1.00
20650;DHT22;10484;48.736;9.332;2022-11-20T04:27:18;6.60;1.00
20650;DHT22;10484;48.736;9.332;2022-11-20T04:29:44;6.60;1.00
20650;DHT22;10484;48.736;9.332;2022-11-20T04:32:09;6.60;1.00
20650;DHT22;10484;48.736;9.332;2022-11-20T04:34:35;6.60;1.00
20650;DHT22;10484;48.736;9.332;2022-11-20T04:37:01;6.60;1.00
20650;DHT22;10484;48.736;9.332;2022-11-20T04:39:26;6.60;1.00
20650;DHT22;10484;48.736;9.332;2022-11-20T04:41:52;6.60;1.00
20650;DHT22;10484;48.736;9.332;2022-11-20T04:44:38;6.60;1.00
20650;DHT22;10484;48.736;9.332;2022-11-20T04:47:03;6.60;1.00
20650;DHT22;10484;48.736;9.332;2022-11-20T04:49:29;6.60;1.00
20650;DHT22;10484;48.736;9.332;2022-11-20T04:51:57;6.60;1.00
20650;DHT22;10484;48.736;9.332;2022-11-20T04:54:22;6.60;1.00
20650;DHT22;10484;48.736;9.332;2022-11-20T04:56:48;6.60;1.00
20650;DHT22;10484;48.736;9.332;2022-11-20T04:59:14;6.60;1.00
20650;DHT22;10484;48.736;9.332;2022-11-20T05:01:39;6.60;1.00
20650;DHT22;10484;48.736;9.332;2022-11-20T05:04:05;6.60;1.00
20650;DHT22;10484;48.736;9.332;2022-11-20T05:06:31;6.60;1.00
20650;DHT22;10484;48.736;9.332;2022-11-20T05:08:57;6.60;1.00
20650;DHT22;10484;48.736;9.332;2022-11-20T05:11:22;6.60;1.00
20650;DHT22;10484;48.736;9.332;2022-11-20T05:13:49;6.60;1.00
20650;DHT22;10484;48.736;9.332;2022-11-20T05:16:20;6.60;1.00
20650;DHT22;10484;48.736;9.332;2022-11-20T05:18:46;6.60;1.00
20650;DHT22;10484;48.736;9.332;2022-11-20T05:21:14;6.50;1.00
20650;DHT22;10484;48.736;9.332;2022-11-20T05:23:40;6.50;1.00
20650;DHT22;10484;48.736;9.332;2022-11-20T05:26:08;6.60;1.00
20650;DHT22;10484;48.736;9.332;2022-11-20T05:28:37;6.50;1.00
20650;DHT22;10484;48.736;9.332;2022-11-20T05:31:11;6.50;1.00
20650;DHT22;10484;48.736;9.332;2022-11-20T05:33:40;6.50;1.00
20650;DHT22;10484;48.736;9.332;2022-11-20T05:36:06;6.50;1.00
20650;DHT22;10484;48.736;9.332;2022-11-20T05:38:32;6.50;1.00
20650;DHT22;10484;48.736;9.332;2022-11-20T05:41:09;6.50;1.00
20650;DHT22;10484;48.736;9.332;2022-11-20T05:43:36;6.50;1.00
20650;DHT22;10484;48.736;9.332;2022-11-20T05:46:03;6.50;1.00
20650;DHT22;10484;48.736;9.332;2022-11-20T05:48:29;6.60;1.00
20650;DHT22;10484;48.736;9.332;2022-11-20T05:50:57;6.60;1.00
20650;DHT22;10484;48.736;9.332;2022-11-20T05:53:24;6.60;1.00
20650;DHT22;10484;48.736;9.332;2022-11-20T05:56:04;6.60;1.00
20650;DHT22;10484;48.736;9.332;2022-11-20T05:58:31;6.60;1.00
20650;DHT22;10484;48.736;9.332;2022-11-20T06:01:13;6.60;1.00
20650;DHT22;10484;48.736;9.332;2022-11-20T06:03:39;6.60;1.00
20650;DHT22;10484;48.736;9.332;2022-11-20T06:06:07;6.60;1.00
20650;DHT22;10484;48.736;9.332;2022-11-20T06:08:33;6.60;1.00
20650;DHT22;10484;48.736;9.332;2022-11-20T06:11:04;6.60;1.00
20650;DHT22;10484;48.736;9.332;2022-11-20T06:13:29;6.60;1.00
20650;DHT22;10484;48.736;9.332;2022-11-20T06:15:55;6.60;1.00
20650;DHT22;10484;48.736;9.332;2022-11-20T06:18:21;6.60;1.00
20650;DHT22;10484;48.736;9.332;2022-11-20T06:20:46;6.60;1.00
20650;DHT22;10484;48.736;9.332;2022-11-20T06:23:12;6.70;1.00
20650;DHT22;10484;48.736;9.332;2022-11-20T06:25:42;6.60;1.00
20650;DHT22;10484;48.736;9.332;2022-11-20T06:28:08;6.70;1.00
20650;DHT22;10484;48.736;9.332;2022-11-20T06:30:35;6.70;1.00
20650;DHT22;10484;48.736;9.332;2022-11-20T06:33:01;6.60;1.00
20650;DHT22;10484;48.736;9.332;2022-11-20T06:35:27;6.60;1.00
20650;DHT22;10484;48.736;9.332;2022-11-20T06:37:52;6.60;1.00
20650;DHT22;10484;48.736;9.332;2022-11-20T06:40:18;6.60;1.00
20650;DHT22;10484;48.736;9.332;2022-11-20T06:42:44;6.60;1.00
20650;DHT22;10484;48.736;9.332;2022-11-20T06:45:10;6.60;1.00
20650;DHT22;10484;48.736;9.332;2022-11-20T06:47:35;6.60;1.00
20650;DHT22;10484;48.736;9.332;2022-11-20T06:50:01;6.60;1.00
20650;DHT22;10484;48.736;9.332;2022-11-20T06:52:26;6.60;1.00
20650;DHT22;10484;48.736;9.332;2022-11-20T06:54:52;6.60;1.00
20650;DHT22;10484;48.736;9.332;2022-11-20T06:57:18;6.60;1.00
20650;DHT22;10484;48.736;9.332;2022-11-20T06:59:43;6.60;1.00
20650;DHT22;10484;48.736;9.332;2022-11-20T07:02:12;6.60;1.00
20650;DHT22;10484;48.736;9.332;2022-11-20T07:04:38;6.60;1.00
20650;DHT22;10484;48.736;9.332;2022-11-20T07:07:04;6.60;1.00
20650;DHT22;10484;48.736;9.332;2022-11-20T07:09:29;6.60;1.00
20650;DHT22;10484;48.736;9.332;2022-11-20T07:11:55;6.60;1.00
20650;DHT22;10484;48.736;9.332;2022-11-20T07:14:20;6.60;1.00
20650;DHT22;10484;48.736;9.332;2022-11-20T07:16:46;6.60;1.00
20650;DHT22;10484;48.736;9.332;2022-11-20T07:19:12;6.60;1.00
20650;DHT22;10484;48.736;9.332;2022-11-20T07:21:37;6.60;1.00
20650;DHT22;10484;48.736;9.332;2022-11-20T07:24:03;6.60;1.00
20650;DHT22;10484;48.736;9.332;2022-11-20T07:26:28;6.60;1.00
20650;DHT22;10484;48.736;9.332;2022-11-20T07:28:54;6.60;1.00
20650;DHT22;10484;48.736;9.332;2022-11-20T07:31:20;6.60;1.00
20650;DHT22;10484;48.736;9.332;2022-11-20T07:33:46;6.60;1.00
20650;DHT22;10484;48.736;9.332;2022-11-20T07:36:11;6.60;1.00
20650;DHT22;10484;48.736;9.332;2022-11-20T07:38:37;6.70;1.00
20650;DHT22;10484;48.736;9.332;2022-11-20T07:41:03;6.70;1.00
20650;DHT22;10484;48.736;9.332;2022-11-20T07:43:29;6.70;1.00
20650;DHT22;10484;48.736;9.332;2022-11-20T07:45:56;6.70;1.00
20650;DHT22;10484;48.736;9.332;2022-11-20T07:48:22;6.70;1.00
20650;DHT22;10484;48.736;9.332;2022-11-20T07:50:48;6.60;1.00
20650;DHT22;10484;48.736;9.332;2022-11-20T07:53:14;6.70;1.00
20650;DHT22;10484;48.736;9.332;2022-11-20T07:55:42;6.70;1.00
20650;DHT22;10484;48.736;9.332;2022-11-20T07:58:07;6.70;1.00
20650;DHT22;10484;48.736;9.332;2022-11-20T08:00:33;6.70;1.00
20650;DHT22;10484;48.736;9.332;2022-11-20T08:02:58;6.70;1.00
20650;DHT22;10484;48.736;9.332;2022-11-20T08:05:24;6.70;1.00
20650;DHT22;10484;48.736;9.332;2022-11-20T08:07:49;6.70;1.00
20650;DHT22;10484;48.736;9.332;2022-11-20T08:10:16;6.70;1.00
20650;DHT22;10484;48.736;9.332;2022-11-20T08:12:49;6.70;1.00
20650;DHT22;10484;48.736;9.332;2022-11-20T08:15:34;6.80;1.00
20650;DHT22;10484;48.736;9.332;2022-11-20T08:18:05;6.70;1.00
20650;DHT22;10484;48.736;9.332;2022-11-20T08:20:32;6.80;1.00
20650;DHT22;10484;48.736;9.332;2022-11-20T08:23:02;6.80;1.00
20650;DHT22;10484;48.736;9.332;2022-11-20T08:25:29;6.80;1.00
20650;DHT22;10484;48.736;9.332;2022-11-20T08:28:00;6.80;1.00
20650;DHT22;10484;48.736;9.332;2022-11-20T08:30:27;6.80;1.00
20650;DHT22;10484;48.736;9.332;2022-11-20T08:32:53;6.80;1.00
20650;DHT22;10484;48.736;9.332;2022-11-20T08:35:20;6.80;1.00
20650;DHT22;10484;48.736;9.332;2022-11-20T08:37:47;6.80;1.00
20650;DHT22;10484;48.736;9.332;2022-11-20T08:40:13;6.80;1.00
20650;DHT22;10484;48.736;9.332;2022-11-20T08:42:49;6.80;1.00
20650;DHT22;10484;48.736;9.332;2022-11-20T08:45:16;6.80;1.00
20650;DHT22;10484;48.736;9.332;2022-11-20T08:47:42;6.90;1.00
20650;DHT22;10484;48.736;9.332;2022-11-20T08:50:09;6.90;1.00
20650;DHT22;10484;48.736;9.332;2022-11-20T08:52:36;6.90;1.00
20650;DHT22;10484;48.736;9.332;2022-11-20T08:55:02;6.90;1.00
20650;DHT22;10484;48.736;9.332;2022-11-20T08:57:28;6.90;1.00
20650;DHT22;10484;48.736;9.332;2022-11-20T08:59:53;6.90;1.00
20650;DHT22;10484;48.736;9.332;2022-11-20T09:02:19;6.90;1.00
20650;DHT22;10484;48.736;9.332;2022-11-20T09:04:44;6.90;1.00
20650;DHT22;10484;48.736;9.332;2022-11-20T09:07:10;6.90;1.00
20650;DHT22;10484;48.736;9.332;2022-11-20T09:09:35;6.90;1.00
20650;DHT22;10484;48.736;9.332;2022-11-20T09:12:01;6.90;1.00
20650;DHT22;10484;48.736;9.332;2022-11-20T09:14:27;7.00;1.00
20650;DHT22;10484;48.736;9.332;2022-11-20T09:16:57;7.00;1.00
20650;DHT22;10484;48.736;9.332;2022-11-20T09:19:26;7.00;1.00
20650;DHT22;10484;48.736;9.332;2022-11-20T09:21:52;7.00;1.00
20650;DHT22;10484;48.736;9.332;2022-11-20T09:24:18;7.00;1.00
20650;DHT22;10484;48.736;9.332;2022-11-20T09:26:44;7.00;1.00
20650;DHT22;10484;48.736;9.332;2022-11-20T09:29:10;7.00;1.00
20650;DHT22;10484;48.736;9.332;2022-11-20T09:31:36;7.10;1.00
20650;DHT22;10484;48.736;9.332;2022-11-20T09:34:02;7.10;1.00
20650;DHT22;10484;48.736;9.332;2022-11-20T09:36:27;7.10;1.00
20650;DHT22;10484;48.736;9.332;2022-11-20T09:38:53;7.10;1.00
20650;DHT22;10484;48.736;9.332;2022-11-20T09:41:56;7.10;1.00
20650;DHT22;10484;48.736;9.332;2022-11-20T09:47:38;7.10;1.00
20650;DHT22;10484;48.736;9.332;2022-11-20T09:50:31;7.20;1.00
20650;DHT22;10484;48.736;9.332;2022-11-20T09:55:56;7.20;1.00
20650;DHT22;10484;48.736;9.332;2022-11-20T09:58:31;7.20;1.00
20650;DHT22;10484;48.736;9.332;2022-11-20T10:01:14;7.30;1.00
20650;DHT22;10484;48.736;9.332;2022-11-20T10:03:48;7.30;1.00
20650;DHT22;10484;48.736;9.332;2022-11-20T10:06:18;7.30;1.00
20650;DHT22;10484;48.736;9.332;2022-11-20T10:09:11;7.30;1.00
20650;DHT22;10484;48.736;9.332;2022-11-20T10:12:06;7.30;1.00
20650;DHT22;10484;48.736;9.332;2022-11-20T10:17:51;7.40;1.00
20650;DHT22;10484;48.736;9.332;2022-11-20T10:26:05;7.40;1.00
20650;DHT22;10484;48.736;9.332;2022-11-20T10:31:34;7.40;1.00
20650;DHT22;10484;48.736;9.332;2022-11-20T10:34:06;7.50;1.00
20650;DHT22;10484;48.736;9.332;2022-11-20T10:36:46;7.50;1.00
20650;DHT22;10484;48.736;9.332;2022-11-20T10:39:24;7.50;1.00
20650;DHT22;10484;48.736;9.332;2022-11-20T10:41:52;7.50;1.00
20650;DHT22;10484;48.736;9.332;2022-11-20T10:44:26;7.50;1.00
20650;DHT22;10484;48.736;9.332;2022-11-20T10:47:16;7.50;1.00
20650;DHT22;10484;48.736;9.332;2022-11-20T10:49:44;7.50;1.00
20650;DHT22;10484;48.736;9.332;2022-11-20T10:55:33;7.50;1.00
20650;DHT22;10484;48.736;9.332;2022-11-20T10:58:20;7.60;1.00
20650;DHT22;10484;48.736;9.332;2022-11-20T11:00:48;7.50;1.00
20650;DHT22;10484;48.736;9.332;2022-11-20T11:03:25;7.60;1.00
20650;DHT22;10484;48.736;9.332;2022-11-20T11:05:56;7.60;1.00
20650;DHT22;10484;48.736;9.332;2022-11-20T11:08:26;7.60;1.00
20650;DHT22;10484;48.736;9.332;2022-11-20T11:11:00;7.60;1.00
20650;DHT22;10484;48.736;9.332;2022-11-20T11:13:30;7.50;1.00
20650;DHT22;10484;48.736;9.332;2022-11-20T11:15:56;7.60;1.00
20650;DHT22;10484;48.736;9.332;2022-11-20T11:18:33;7.60;1.00
20650;DHT22;10484;48.736;9.332;2022-11-20T11:21:01;7.60;1.00
20650;DHT22;10484;48.736;9.332;2022-11-20T11:23:39;7.60;1.00
20650;DHT22;10484;48.736;9.332;2022-11-20T11:26:17;7.60;1.00
20650;DHT22;10484;48.736;9.332;2022-11-20T11:28:59;7.60;1.00
20650;DHT22;10484;48.736;9.332;2022-11-20T11:31:32;7.60;1.00
20650;DHT22;10484;48.736;9.332;2022-11-20T11:34:15;7.60;1.00
20650;DHT22;10484;48.736;9.332;2022-11-20T11:36:42;7.60;1.00
20650;DHT22;10484;48.736;9.332;2022-11-20T11:39:16;7.60;1.00
20650;DHT22;10484;48.736;9.332;2022-11-20T11:41:43;7.60;1.00
20650;DHT22;10484;48.736;9.332;2022-11-20T11:44:23;7.60;1.00
20650;DHT22;10484;48.736;9.332;2022-11-20T11:47:17;7.70;1.00
20650;DHT22;10484;48.736;9.332;2022-11-20T11:49:46;7.70;1.00
20650;DHT22;10484;48.736;9.332;2022-11-20T11:52:21;7.70;1.00
20650;DHT22;10484;48.736;9.332;2022-11-20T11:54:55;7.70;1.00
20650;DHT22;10484;48.736;9.332;2022-11-20T11:57:26;7.80;1.00
20650;DHT22;10484;48.736;9.332;2022-11-20T12:00:13;7.80;1.00
20650;DHT22;10484;48.736;9.332;2022-11-20T12:13:21;8.00;1.00
20650;DHT22;10484;48.736;9.332;2022-11-20T12:15:50;8.00;1.00
20650;DHT22;10484;48.736;9.332;2022-11-20T12:18:20;8.00;1.00
20650;DHT22;10484;48.736;9.332;2022-11-20T12:29:45;8.20;1.00
20650;DHT22;10484;48.736;9.332;2022-11-20T12:34:56;8.20;1.00
20650;DHT22;10484;48.736;9.332;2022-11-20T12:38:11;8.30;1.00
20650;DHT22;10484;48.736;9.332;2022-11-20T12:43:06;8.40;1.00
20650;DHT22;10484;48.736;9.332;2022-11-20T12:48:38;8.50;1.00
20650;DHT22;10484;48.736;9.332;2022-11-20T12:56:49;8.60;1.00
20650;DHT22;10484;48.736;9.332;2022-11-20T12:59:49;8.70;1.00
20650;DHT22;10484;48.736;9.332;2022-11-20T13:05:09;8.70;1.00
20650;DHT22;10484;48.736;9.332;2022-11-20T13:07:41;8.70;1.00
20650;DHT22;10484;48.736;9.332;2022-11-20T13:10:18;8.70;1.00
20650;DHT22;10484;48.736;9.332;2022-11-20T13:12:59;8.70;1.00
20650;DHT22;10484;48.736;9.332;2022-11-20T13:15:52;8.70;1.00
20650;DHT22;10484;48.736;9.332;2022-11-20T13:18:21;8.80;1.00
20650;DHT22;10484;48.736;9.332;2022-11-20T13:20:47;8.80;1.00
20650;DHT22;10484;48.736;9.332;2022-11-20T13:23:25;8.80;1.00
20650;DHT22;10484;48.736;9.332;2022-11-20T13:26:04;8.90;1.00
20650;DHT22;10484;48.736;9.332;2022-11-20T13:28:31;8.90;1.00
20650;DHT22;10484;48.736;9.332;2022-11-20T13:30:58;8.90;1.00
20650;DHT22;10484;48.736;9.332;2022-11-20T13:36:05;8.90;1.00
20650;DHT22;10484;48.736;9.332;2022-11-20T13:38:51;8.90;1.00
20650;DHT22;10484;48.736;9.332;2022-11-20T13:46:41;9.00;1.00
20650;DHT22;10484;48.736;9.332;2022-11-20T13:51:46;9.00;1.00
20650;DHT22;10484;48.736;9.332;2022-11-20T13:57:07;9.10;1.00
20650;DHT22;10484;48.736;9.332;2022-11-20T13:59:57;9.10;1.00
20650;DHT22;10484;48.736;9.332;2022-11-20T14:02:25;9.20;1.00
20650;DHT22;10484;48.736;9.332;2022-11-20T14:04:53;9.20;1.00
20650;DHT22;10484;48.736;9.332;2022-11-20T14:07:23;9.20;1.00
20650;DHT22;10484;48.736;9.332;2022-11-20T14:09:55;9.20;1.00
20650;DHT22;10484;48.736;9.332;2022-11-20T14:12:27;9.20;1.00
20650;DHT22;10484;48.736;9.332;2022-11-20T14:14:54;9.20;1.00
20650;DHT22;10484;48.736;9.332;2022-11-20T14:17:37;9.20;1.00
20650;DHT22;10484;48.736;9.332;2022-11-20T14:20:12;9.10;1.00
20650;DHT22;10484;48.736;9.332;2022-11-20T14:22:39;9.10;1.00
20650;DHT22;10484;48.736;9.332;2022-11-20T14:27:44;9.10;1.00
20650;DHT22;10484;48.736;9.332;2022-11-20T14:30:15;9.10;1.00
20650;DHT22;10484;48.736;9.332;2022-11-20T14:32:42;9.10;1.00
20650;DHT22;10484;48.736;9.332;2022-11-20T14:35:13;9.10;1.00
20650;DHT22;10484;48.736;9.332;2022-11-20T14:37:40;9.10;1.00
20650;DHT22;10484;48.736;9.332;2022-11-20T14:40:28;9.00;1.00
20650;DHT22;10484;48.736;9.332;2022-11-20T14:42:54;9.00;1.00
20650;DHT22;10484;48.736;9.332;2022-11-20T14:45:21;9.00;1.00
20650;DHT22;10484;48.736;9.332;2022-11-20T14:47:48;9.00;1.00
20650;DHT22;10484;48.736;9.332;2022-11-20T14:50:22;9.00;1.00
20650;DHT22;10484;48.736;9.332;2022-11-20T14:52:53;9.00;1.00
20650;DHT22;10484;48.736;9.332;2022-11-20T14:55:36;9.00;1.00
20650;DHT22;10484;48.736;9.332;2022-11-20T14:58:23;8.90;1.00
20650;DHT22;10484;48.736;9.332;2022-11-20T15:00:56;8.90;1.00
20650;DHT22;10484;48.736;9.332;2022-11-20T15:03:22;8.90;1.00
20650;DHT22;10484;48.736;9.332;2022-11-20T15:05:49;8.90;1.00
20650;DHT22;10484;48.736;9.332;2022-11-20T15:08:16;8.90;1.00
20650;DHT22;10484;48.736;9.332;2022-11-20T15:10:50;8.90;1.00
20650;DHT22;10484;48.736;9.332;2022-11-20T15:15:55;8.80;1.00
20650;DHT22;10484;48.736;9.332;2022-11-20T15:18:31;8.80;1.00
20650;DHT22;10484;48.736;9.332;2022-11-20T15:21:01;8.80;1.00
20650;DHT22;10484;48.736;9.332;2022-11-20T15:23:27;8.80;1.00
20650;DHT22;10484;48.736;9.332;2022-11-20T15:25:54;8.80;1.00
20650;DHT22;10484;48.736;9.332;2022-11-20T15:28:29;8.80;1.00
20650;DHT22;10484;48.736;9.332;2022-11-20T15:30:55;8.80;1.00
20650;DHT22;10484;48.736;9.332;2022-11-20T15:33:22;8.70;1.00
20650;DHT22;10484;48.736;9.332;2022-11-20T15:35:47;8.70;1.00
20650;DHT22;10484;48.736;9.332;2022-11-20T15:38:13;8.70;1.00
20650;DHT22;10484;48.736;9.332;2022-11-20T15:40:40;8.70;1.00
20650;DHT22;10484;48.736;9.332;2022-11-20T15:43:05;8.70;1.00
20650;DHT22;10484;48.736;9.332;2022-11-20T15:45:46;8.60;1.00
20650;DHT22;10484;48.736;9.332;2022-11-20T15:48:19;8.60;1.00
20650;DHT22;10484;48.736;9.332;2022-11-20T15:50:56;8.60;1.00
20650;DHT22;10484;48.736;9.332;2022-11-20T15:53:23;8.60;1.00
20650;DHT22;10484;48.736;9.332;2022-11-20T15:55:48;8.60;1.00
20650;DHT22;10484;48.736;9.332;2022-11-20T15:58:14;8.60;1.00
20650;DHT22;10484;48.736;9.332;2022-11-20T16:00:42;8.50;1.00
20650;DHT22;10484;48.736;9.332;2022-11-20T16:03:12;8.50;1.00
20650;DHT22;10484;48.736;9.332;2022-11-20T16:05:38;8.50;1.00
20650;DHT22;10484;48.736;9.332;2022-11-20T16:08:04;8.40;1.00
20650;DHT22;10484;48.736;9.332;2022-11-20T16:10:30;8.40;1.00
20650;DHT22;10484;48.736;9.332;2022-11-20T16:12:56;8.40;1.00
20650;DHT22;10484;48.736;9.332;2022-11-20T16:15:40;8.30;1.00
20650;DHT22;10484;48.736;9.332;2022-11-20T16:18:21;8.30;1.00
20650;DHT22;10484;48.736;9.332;2022-11-20T16:20:50;8.20;1.00
20650;DHT22;10484;48.736;9.332;2022-11-20T16:23:17;8.20;1.00
20650;DHT22;10484;48.736;9.332;2022-11-20T16:25:43;8.10;1.00
20650;DHT22;10484;48.736;9.332;2022-11-20T16:28:09;8.10;1.00
20650;DHT22;10484;48.736;9.332;2022-11-20T16:30:35;8.10;1.00
20650;DHT22;10484;48.736;9.332;2022-11-20T16:33:02;8.00;1.00
20650;DHT22;10484;48.736;9.332;2022-11-20T16:35:29;8.00;1.00
20650;DHT22;10484;48.736;9.332;2022-11-20T16:37:56;8.00;1.00
20650;DHT22;10484;48.736;9.332;2022-11-20T16:40:22;8.00;1.00
20650;DHT22;10484;48.736;9.332;2022-11-20T16:42:48;8.00;1.00
20650;DHT22;10484;48.736;9.332;2022-11-20T16:45:14;8.00;1.00
20650;DHT22;10484;48.736;9.332;2022-11-20T16:47:40;8.00;1.00
20650;DHT22;10484;48.736;9.332;2022-11-20T16:50:06;8.00;1.00
20650;DHT22;10484;48.736;9.332;2022-11-20T16:52:32;7.90;1.00
20650;DHT22;10484;48.736;9.332;2022-11-20T16:54:58;7.90;1.00
20650;DHT22;10484;48.736;9.332;2022-11-20T16:57:26;7.90;1.00
20650;DHT22;10484;48.736;9.332;2022-11-20T16:59:52;7.90;1.00
20650;DHT22;10484;48.736;9.332;2022-11-20T17:02:17;7.90;1.00
20650;DHT22;10484;48.736;9.332;2022-11-20T17:04:43;7.90;1.00
20650;DHT22;10484;48.736;9.332;2022-11-20T17:07:08;7.90;1.00
20650;DHT22;10484;48.736;9.332;2022-11-20T17:09:35;7.90;1.00
20650;DHT22;10484;48.736;9.332;2022-11-20T17:12:00;7.80;1.00
20650;DHT22;10484;48.736;9.332;2022-11-20T17:14:26;7.80;1.00
20650;DHT22;10484;48.736;9.332;2022-11-20T17:16:51;7.80;1.00
20650;DHT22;10484;48.736;9.332;2022-11-20T17:19:17;7.80;1.00
20650;DHT22;10484;48.736;9.332;2022-11-20T17:21:43;7.80;1.00
20650;DHT22;10484;48.736;9.332;2022-11-20T17:24:10;7.80;1.00
20650;DHT22;10484;48.736;9.332;2022-11-20T17:26:39;7.80;1.00
20650;DHT22;10484;48.736;9.332;2022-11-20T17:29:13;7.80;1.00
20650;DHT22;10484;48.736;9.332;2022-11-20T17:31:39;7.70;1.00